Time;durP1;ratioP1;P1;durP2;ratioP2;P2;SDS_P1;SDS_P2;PMS_P1;PMS_P2;Temp;Humidity;BMP_temperature;BMP_pressure;BME280_temperature;BME280_humidity;BME280_pressure;Samples;Min_cycle;Max_cycle;Signal;HPM_P1;HPM_P2
2022/05/04 00:01:42;;;;;;;6.33;5.83;;;;;;;;;;5010441;28;20837;-64
2022/05/04 00:04:08;;;;;;;7.20;5.70;;;;;;;;;;5010581;28;20445;-66
2022/05/04 00:06:34;;;;;;;7.13;6.37;;;;;;;;;;5010565;28;20983;-68
2022/05/04 00:09:00;;;;;;;7.07;6.33;;;;;;;;;;5010446;28;20422;-68
2022/05/04 00:11:27;;;;;;;6.90;6.30;;;;;;;;;;5010486;28;20406;-67
2022/05/04 00:13:53;;;;;;;8.33;6.90;;;;;;;;;;5010305;28;20455;-60
2022/05/04 00:16:19;;;;;;;7.47;6.87;;;;;;;;;;5010350;28;20433;-68
2022/05/04 00:18:45;;;;;;;10.07;7.00;;;;;;;;;;5010543;28;20405;-67
2022/05/04 00:21:11;;;;;;;7.10;6.50;;;;;;;;;;5010166;28;20479;-59
2022/05/04 00:23:37;;;;;;;7.30;6.70;;;;;;;;;;5010236;28;20472;-61
2022/05/04 00:26:03;;;;;;;10.07;7.20;;;;;;;;;;5010168;28;20898;-65
2022/05/04 00:28:32;;;;;;;7.63;6.80;;;;;;;;;;5010170;28;20751;-58
2022/05/04 00:30:58;;;;;;;7.00;6.40;;;;;;;;;;5010193;28;20878;-67
2022/05/04 00:33:25;;;;;;;7.70;7.00;;;;;;;;;;5010177;28;20421;-57
2022/05/04 00:35:51;;;;;;;7.60;7.00;;;;;;;;;;5009975;28;20409;-62
2022/05/04 00:38:17;;;;;;;8.40;6.83;;;;;;;;;;5010040;28;20504;-56
2022/05/04 00:40:43;;;;;;;7.70;6.63;;;;;;;;;;5010051;28;20496;-56
2022/05/04 00:43:22;;;;;;;6.67;6.20;;;;;;;;;;4992348;28;20997;-62
2022/05/04 00:45:48;;;;;;;7.63;6.93;;;;;;;;;;5009555;28;20481;-56
2022/05/04 00:48:15;;;;;;;7.10;6.50;;;;;;;;;;5009938;28;20848;-55
2022/05/04 00:50:41;;;;;;;7.80;7.20;;;;;;;;;;5009774;28;20412;-55
2022/05/04 00:53:07;;;;;;;9.30;7.57;;;;;;;;;;5009967;28;20820;-55
2022/05/04 00:55:33;;;;;;;7.17;6.50;;;;;;;;;;5009818;28;20410;-56
2022/05/04 01:00:48;;;;;;;7.60;6.90;;;;;;;;;;5009918;28;20427;-54
2022/05/04 01:03:14;;;;;;;8.13;7.43;;;;;;;;;;5009648;28;20502;-54
2022/05/04 01:05:43;;;;;;;9.13;7.37;;;;;;;;;;5009677;28;20762;-56
2022/05/04 01:08:09;;;;;;;8.27;7.57;;;;;;;;;;5009691;28;20406;-55
2022/05/04 01:10:35;;;;;;;9.87;7.37;;;;;;;;;;5009481;28;20413;-56
2022/05/04 01:13:01;;;;;;;7.43;6.70;;;;;;;;;;5009792;28;20417;-55
2022/05/04 01:15:27;;;;;;;8.30;7.17;;;;;;;;;;4992084;28;20410;-54
2022/05/04 01:17:53;;;;;;;8.70;7.63;;;;;;;;;;5009811;28;20417;-55
2022/05/04 01:20:20;;;;;;;7.40;6.70;;;;;;;;;;4991765;28;20556;-56
2022/05/04 01:22:46;;;;;;;10.80;7.20;;;;;;;;;;5009665;28;20460;-55
2022/05/04 01:25:15;;;;;;;9.57;7.83;;;;;;;;;;5009444;28;20414;-58
2022/05/04 01:27:41;;;;;;;9.00;8.07;;;;;;;;;;5009379;28;20485;-56
2022/05/04 01:30:09;;;;;;;8.97;7.63;;;;;;;;;;5009458;28;20413;-54
2022/05/04 01:32:35;;;;;;;14.50;8.13;;;;;;;;;;5009458;28;20919;-58
2022/05/04 01:35:01;;;;;;;8.20;7.40;;;;;;;;;;5009292;28;20424;-55
2022/05/04 01:37:27;;;;;;;9.30;8.30;;;;;;;;;;5009366;28;20410;-55
2022/05/04 01:39:53;;;;;;;7.90;7.20;;;;;;;;;;4991819;28;20414;-56
2022/05/04 01:42:23;;;;;;;8.80;8.00;;;;;;;;;;5009277;28;20548;-55
2022/05/04 01:44:49;;;;;;;7.83;7.13;;;;;;;;;;5009108;28;20413;-59
2022/05/04 01:47:18;;;;;;;9.27;8.33;;;;;;;;;;5009524;28;20418;-58
2022/05/04 01:49:44;;;;;;;8.97;8.03;;;;;;;;;;4991832;28;20468;-56
2022/05/04 01:52:11;;;;;;;9.73;8.57;;;;;;;;;;5009151;28;20413;-58
2022/05/04 01:54:40;;;;;;;9.40;8.60;;;;;;;;;;4991593;28;20433;-54
2022/05/04 01:57:06;;;;;;;9.80;8.80;;;;;;;;;;5009162;28;20409;-55
2022/05/04 01:59:32;;;;;;;9.60;8.60;;;;;;;;;;4994762;28;20417;-57
2022/05/04 02:01:58;;;;;;;9.83;8.43;;;;;;;;;;5012207;28;20414;-55
2022/05/04 02:04:24;;;;;;;11.70;8.87;;;;;;;;;;5012309;28;20986;-54
2022/05/04 02:06:52;;;;;;;9.60;8.60;;;;;;;;;;5012228;28;20469;-60
2022/05/04 02:09:18;;;;;;;11.17;9.23;;;;;;;;;;4994751;28;20429;-56
2022/05/04 02:11:44;;;;;;;10.10;9.20;;;;;;;;;;5012190;28;20406;-57
2022/05/04 02:14:10;;;;;;;10.67;9.57;;;;;;;;;;5011998;28;20766;-54
2022/05/04 02:16:36;;;;;;;10.23;9.13;;;;;;;;;;4994432;28;20625;-57
2022/05/04 02:19:02;;;;;;;10.03;9.03;;;;;;;;;;5012108;28;20401;-57
2022/05/04 02:21:28;;;;;;;10.67;8.53;;;;;;;;;;5011943;28;20822;-57
2022/05/04 02:23:54;;;;;;;11.60;9.80;;;;;;;;;;5012006;28;20526;-54
2022/05/04 02:26:20;;;;;;;10.50;9.50;;;;;;;;;;5011892;28;20412;-55
2022/05/04 02:28:46;;;;;;;10.60;9.30;;;;;;;;;;5012207;28;20414;-56
2022/05/04 02:31:15;;;;;;;10.17;9.13;;;;;;;;;;5011872;28;20413;-64
2022/05/04 02:33:43;;;;;;;8.70;7.90;;;;;;;;;;4994269;28;20876;-58
2022/05/04 02:38:54;;;;;;;10.70;9.00;;;;;;;;;;5011997;28;20929;-56
2022/05/04 02:41:20;;;;;;;10.27;9.27;;;;;;;;;;5011779;28;20410;-57
2022/05/04 02:43:46;;;;;;;10.13;9.17;;;;;;;;;;5011818;28;20465;-56
2022/05/04 02:46:16;;;;;;;13.10;9.70;;;;;;;;;;5011760;28;20406;-57
2022/05/04 02:48:43;;;;;;;15.70;9.53;;;;;;;;;;4994006;28;20426;-68
2022/05/04 02:51:09;;;;;;;17.73;9.83;;;;;;;;;;5011689;28;20460;-60
2022/05/04 02:53:35;;;;;;;10.40;9.30;;;;;;;;;;5011437;28;20458;-63
2022/05/04 02:56:01;;;;;;;13.40;9.20;;;;;;;;;;5011523;28;20410;-67
2022/05/04 02:58:27;;;;;;;16.10;10.10;;;;;;;;;;5011477;28;20402;-65
2022/05/04 03:00:54;;;;;;;11.37;9.57;;;;;;;;;;5011333;28;20550;-60
2022/05/04 03:03:20;;;;;;;16.03;9.67;;;;;;;;;;5011044;28;20476;-56
2022/05/04 03:05:46;;;;;;;14.20;9.13;;;;;;;;;;5011593;28;20406;-64
2022/05/04 03:08:12;;;;;;;11.20;9.33;;;;;;;;;;5010892;28;20414;-55
2022/05/04 03:13:23;;;;;;;12.63;10.60;;;;;;;;;;5011203;28;20408;-64
2022/05/04 03:15:49;;;;;;;14.90;10.47;;;;;;;;;;5011374;28;20763;-61
2022/05/04 03:18:17;;;;;;;13.00;9.57;;;;;;;;;;5011341;28;20406;-68
2022/05/04 03:20:43;;;;;;;13.27;9.70;;;;;;;;;;5011028;28;20491;-65
2022/05/04 03:23:09;;;;;;;15.50;10.73;;;;;;;;;;5011014;28;20473;-70
2022/05/04 03:25:35;;;;;;;18.03;10.97;;;;;;;;;;4993469;28;20909;-70
2022/05/04 03:28:01;;;;;;;11.67;10.23;;;;;;;;;;5010758;28;20447;-68
2022/05/04 03:30:27;;;;;;;11.93;9.87;;;;;;;;;;5011042;28;20405;-67
2022/05/04 03:32:53;;;;;;;14.60;10.10;;;;;;;;;;5010807;28;20915;-68
2022/05/04 03:35:19;;;;;;;14.17;10.67;;;;;;;;;;5010757;28;20409;-61
2022/05/04 03:37:45;;;;;;;12.80;10.40;;;;;;;;;;5010985;28;20417;-64
2022/05/04 03:40:13;;;;;;;18.77;12.43;;;;;;;;;;5009478;28;20410;-59
2022/05/04 03:42:39;;;;;;;21.20;11.37;;;;;;;;;;5009570;28;21040;-62
2022/05/04 03:45:05;;;;;;;13.90;11.90;;;;;;;;;;5009560;28;20555;-64
2022/05/04 03:47:34;;;;;;;16.97;11.50;;;;;;;;;;4992200;28;20506;-57
2022/05/04 03:50:00;;;;;;;17.83;10.80;;;;;;;;;;5009615;28;20413;-54
2022/05/04 03:52:26;;;;;;;13.03;10.50;;;;;;;;;;5009390;28;20417;-59
2022/05/04 03:54:52;;;;;;;15.00;10.93;;;;;;;;;;5009489;28;20425;-59
2022/05/04 03:57:18;;;;;;;13.83;10.13;;;;;;;;;;5009472;28;20763;-60
2022/05/04 03:59:44;;;;;;;15.33;12.10;;;;;;;;;;5009642;28;20437;-61
2022/05/04 04:02:10;;;;;;;14.33;11.63;;;;;;;;;;5009223;28;20817;-60
2022/05/04 04:04:36;;;;;;;15.27;11.70;;;;;;;;;;5009512;28;20508;-57
2022/05/04 04:07:03;;;;;;;16.50;11.73;;;;;;;;;;5009502;28;20413;-62
2022/05/04 04:09:28;;;;;;;11.90;10.00;;;;;;;;;;5009254;28;20406;-60
2022/05/04 04:11:54;;;;;;;16.73;11.17;;;;;;;;;;5009182;28;20496;-54
2022/05/04 04:14:20;;;;;;;15.07;11.20;;;;;;;;;;5009194;28;20416;-54
2022/05/04 04:16:49;;;;;;;16.47;10.67;;;;;;;;;;5009364;28;20907;-59
2022/05/04 04:19:15;;;;;;;13.53;11.00;;;;;;;;;;5009395;28;20906;-56
2022/05/04 04:21:50;;;;;;;13.33;10.53;;;;;;;;;;5007890;28;20788;-57
2022/05/04 04:24:22;;;;;;;18.60;10.90;;;;;;;;;;5009440;28;20496;-58
2022/05/04 04:26:48;;;;;;;14.83;11.00;;;;;;;;;;5009193;28;20497;-64
2022/05/04 04:29:14;;;;;;;15.20;11.57;;;;;;;;;;5009035;28;20825;-56
2022/05/04 04:31:40;;;;;;;13.67;11.10;;;;;;;;;;4991364;28;20405;-58
2022/05/04 04:34:07;;;;;;;12.60;11.30;;;;;;;;;;5008876;28;20424;-57
2022/05/04 04:36:33;;;;;;;13.53;11.30;;;;;;;;;;4991468;28;20441;-54
2022/05/04 04:38:59;;;;;;;13.97;11.33;;;;;;;;;;5008843;28;20796;-60
2022/05/04 04:41:25;;;;;;;12.67;11.00;;;;;;;;;;5008674;28;20409;-58
2022/05/04 04:43:51;;;;;;;14.00;10.97;;;;;;;;;;5008703;28;20497;-53
2022/05/04 04:46:17;;;;;;;16.73;11.07;;;;;;;;;;5008790;28;20412;-55
2022/05/04 04:48:43;;;;;;;15.03;10.90;;;;;;;;;;5008867;28;20931;-59
2022/05/04 04:51:09;;;;;;;18.83;10.33;;;;;;;;;;5021440;28;20412;-60
2022/05/04 04:53:35;;;;;;;11.97;10.73;;;;;;;;;;5029500;28;20401;-60
2022/05/04 04:56:01;;;;;;;15.10;10.50;;;;;;;;;;5029181;28;20545;-60
2022/05/04 04:58:27;;;;;;;16.10;11.00;;;;;;;;;;5022665;28;20924;-55
2022/05/04 05:00:53;;;;;;;14.77;11.27;;;;;;;;;;5011063;28;20406;-55
2022/05/04 05:03:19;;;;;;;16.33;10.40;;;;;;;;;;5010499;28;20472;-58
2022/05/04 05:05:45;;;;;;;13.97;10.60;;;;;;;;;;5017284;28;20470;-53
2022/05/04 05:08:12;;;;;;;15.53;11.63;;;;;;;;;;5008766;28;20425;-59
2022/05/04 05:10:38;;;;;;;12.93;11.40;;;;;;;;;;5008703;28;20834;-56
2022/05/04 05:13:04;;;;;;;17.00;11.20;;;;;;;;;;5013508;28;20947;-54
2022/05/04 05:18:16;;;;;;;14.67;11.13;;;;;;;;;;5008934;28;20420;-64
2022/05/04 05:20:42;;;;;;;17.73;11.33;;;;;;;;;;4977430;28;20558;-57
2022/05/04 05:23:08;;;;;;;15.33;12.07;;;;;;;;;;4986591;28;20523;-58
2022/05/04 05:25:37;;;;;;;18.37;11.40;;;;;;;;;;4989170;28;20501;-58
2022/05/04 05:28:05;;;;;;;17.53;11.73;;;;;;;;;;4987867;28;20783;-55
2022/05/04 05:30:34;;;;;;;18.63;12.33;;;;;;;;;;4987592;28;20834;-57
2022/05/04 05:33:00;;;;;;;20.23;11.97;;;;;;;;;;4970810;28;20447;-55
2022/05/04 05:35:26;;;;;;;17.03;12.23;;;;;;;;;;4973031;28;20403;-60
2022/05/04 05:37:52;;;;;;;17.90;12.50;;;;;;;;;;4973032;28;20733;-64
2022/05/04 05:40:18;;;;;;;15.77;11.10;;;;;;;;;;4990547;28;20754;-52
2022/05/04 05:42:45;;;;;;;16.50;12.60;;;;;;;;;;4992183;28;20799;-57
2022/05/04 05:45:11;;;;;;;22.87;12.63;;;;;;;;;;4992152;28;20418;-63
2022/05/04 05:47:39;;;;;;;15.70;11.60;;;;;;;;;;4992172;28;20483;-66
2022/05/04 05:50:05;;;;;;;15.47;12.30;;;;;;;;;;4990882;28;20435;-56
2022/05/04 05:52:31;;;;;;;18.03;12.30;;;;;;;;;;4991760;28;20429;-62
2022/05/04 05:54:58;;;;;;;12.33;10.50;;;;;;;;;;4991909;28;20410;-59
2022/05/04 05:57:24;;;;;;;16.03;11.80;;;;;;;;;;4991671;28;20429;-62
2022/05/04 05:59:50;;;;;;;13.37;10.77;;;;;;;;;;4991893;28;20405;-60
2022/05/04 06:02:16;;;;;;;16.07;12.03;;;;;;;;;;4992131;28;20491;-56
2022/05/04 06:04:43;;;;;;;16.50;11.90;;;;;;;;;;4990852;28;20771;-63
2022/05/04 06:07:09;;;;;;;15.73;11.43;;;;;;;;;;4972377;28;20411;-66
2022/05/04 06:09:35;;;;;;;14.80;11.47;;;;;;;;;;4972305;28;20427;-60
2022/05/04 06:12:02;;;;;;;20.73;11.10;;;;;;;;;;4972440;28;20422;-58
2022/05/04 06:14:28;;;;;;;12.60;10.80;;;;;;;;;;4990461;28;20422;-62
2022/05/04 06:16:54;;;;;;;17.83;11.10;;;;;;;;;;4991791;28;20410;-54
2022/05/04 06:19:20;;;;;;;13.50;10.90;;;;;;;;;;4991358;28;20428;-57
2022/05/04 06:21:46;;;;;;;13.03;11.23;;;;;;;;;;5030075;28;20467;-59
2022/05/04 06:24:12;;;;;;;13.83;10.70;;;;;;;;;;5030902;28;20472;-57
2022/05/04 06:26:38;;;;;;;13.40;10.00;;;;;;;;;;5030801;28;20413;-56
2022/05/04 06:29:04;;;;;;;11.73;10.30;;;;;;;;;;5030985;28;20413;-55
2022/05/04 06:34:16;;;;;;;11.73;10.17;;;;;;;;;;5031118;28;20457;-58
2022/05/04 06:36:42;;;;;;;13.23;9.93;;;;;;;;;;5030699;28;20912;-54
2022/05/04 06:39:09;;;;;;;14.80;10.13;;;;;;;;;;5030638;28;20417;-63
2022/05/04 06:41:36;;;;;;;19.23;10.50;;;;;;;;;;5030645;28;20737;-56
2022/05/04 06:44:02;;;;;;;14.23;9.90;;;;;;;;;;5029753;28;20520;-57
2022/05/04 06:46:28;;;;;;;11.33;10.13;;;;;;;;;;5012720;28;20493;-63
2022/05/04 06:48:55;;;;;;;10.57;9.50;;;;;;;;;;5012866;28;20462;-61
2022/05/04 06:51:21;;;;;;;9.90;9.00;;;;;;;;;;5030425;28;20501;-58
2022/05/04 06:53:47;;;;;;;15.43;10.57;;;;;;;;;;5030625;28;20415;-56
2022/05/04 06:56:13;;;;;;;12.60;10.20;;;;;;;;;;5030281;28;20409;-55
2022/05/04 06:58:39;;;;;;;18.30;10.30;;;;;;;;;;5030317;28;20413;-56
2022/05/04 07:01:08;;;;;;;14.73;10.93;;;;;;;;;;5030558;28;20476;-54
2022/05/04 07:03:34;;;;;;;11.83;10.63;;;;;;;;;;5030417;28;20468;-55
2022/05/04 07:06:00;;;;;;;12.87;10.40;;;;;;;;;;5018675;28;20397;-56
2022/05/04 07:08:26;;;;;;;12.37;10.20;;;;;;;;;;5010442;28;20810;-57
2022/05/04 07:10:52;;;;;;;18.00;11.00;;;;;;;;;;5010264;28;20434;-57
2022/05/04 07:13:18;;;;;;;11.87;10.67;;;;;;;;;;5010562;28;20524;-56
2022/05/04 07:15:45;;;;;;;15.70;10.87;;;;;;;;;;5010894;28;20408;-60
2022/05/04 07:18:11;;;;;;;22.47;12.30;;;;;;;;;;5010800;28;20747;-60
2022/05/04 07:20:37;;;;;;;16.53;11.57;;;;;;;;;;5010708;28;20971;-55
2022/05/04 07:23:03;;;;;;;18.23;11.33;;;;;;;;;;4993316;28;20556;-66
2022/05/04 07:25:29;;;;;;;13.47;12.00;;;;;;;;;;5011889;28;20437;-57
2022/05/04 07:27:55;;;;;;;16.47;12.47;;;;;;;;;;5015429;28;20413;-57
2022/05/04 07:30:21;;;;;;;19.77;12.23;;;;;;;;;;4992461;28;20471;-59
2022/05/04 07:32:47;;;;;;;18.53;11.37;;;;;;;;;;5018646;28;20416;-61
2022/05/04 07:35:13;;;;;;;19.23;12.77;;;;;;;;;;5023179;28;20883;-57
2022/05/04 07:37:42;;;;;;;16.43;12.00;;;;;;;;;;5010246;28;20406;-58
2022/05/04 07:42:54;;;;;;;23.23;12.43;;;;;;;;;;5009971;28;20480;-57
2022/05/04 07:45:19;;;;;;;20.30;12.77;;;;;;;;;;5009894;28;20406;-58
2022/05/04 07:47:46;;;;;;;18.73;13.00;;;;;;;;;;5009859;28;20429;-59
2022/05/04 07:50:12;;;;;;;24.80;13.47;;;;;;;;;;5009726;28;20424;-58
2022/05/04 07:52:39;;;;;;;13.93;11.13;;;;;;;;;;5009621;28;20397;-59
2022/05/04 07:55:06;;;;;;;19.23;12.83;;;;;;;;;;5009731;28;20413;-61
2022/05/04 07:57:32;;;;;;;16.30;12.33;;;;;;;;;;5009603;28;20908;-59
2022/05/04 08:05:31;;;;;;;17.17;12.77;;;;;;;;;;5019809;28;20507;-55
2022/05/04 08:07:58;;;;;;;17.10;12.20;;;;;;;;;;5029363;28;20462;-57
2022/05/04 08:10:25;;;;;;;19.80;12.47;;;;;;;;;;5029236;28;20408;-57
2022/05/04 08:12:52;;;;;;;16.70;13.03;;;;;;;;;;5029210;28;20416;-58
2022/05/04 08:15:18;;;;;;;16.80;12.50;;;;;;;;;;5029142;28;20461;-59
2022/05/04 08:17:44;;;;;;;20.40;12.67;;;;;;;;;;5029171;28;20414;-57
2022/05/04 08:20:10;;;;;;;16.37;13.00;;;;;;;;;;5028988;28;20467;-58
2022/05/04 08:22:36;;;;;;;18.37;13.07;;;;;;;;;;5028857;28;20468;-58
2022/05/04 08:25:02;;;;;;;18.93;14.03;;;;;;;;;;5029024;28;20488;-60
2022/05/04 08:27:32;;;;;;;30.20;12.73;;;;;;;;;;5029097;28;20968;-58
2022/05/04 08:30:01;;;;;;;18.23;12.23;;;;;;;;;;5029109;28;20412;-58
2022/05/04 08:32:29;;;;;;;18.53;13.10;;;;;;;;;;5011229;28;20853;-55
2022/05/04 08:34:55;;;;;;;19.07;13.10;;;;;;;;;;5028751;28;20420;-56
2022/05/04 08:37:22;;;;;;;20.50;13.77;;;;;;;;;;5028675;28;20409;-59
2022/05/04 08:39:48;;;;;;;16.83;12.50;;;;;;;;;;5017287;28;20517;-59
2022/05/04 08:42:15;;;;;;;17.73;12.60;;;;;;;;;;5009168;28;20496;-59
2022/05/04 08:44:42;;;;;;;25.10;13.70;;;;;;;;;;5008819;28;20824;-62
2022/05/04 08:47:12;;;;;;;17.60;12.20;;;;;;;;;;5008848;28;20494;-64
2022/05/04 08:49:41;;;;;;;14.20;11.50;;;;;;;;;;5008951;28;20414;-60
2022/05/04 08:52:08;;;;;;;16.97;12.70;;;;;;;;;;4991395;28;20846;-56
2022/05/04 08:54:34;;;;;;;15.67;11.80;;;;;;;;;;4991092;28;20798;-59
2022/05/04 08:57:00;;;;;;;21.43;13.37;;;;;;;;;;5008987;28;20517;-62
2022/05/04 08:59:28;;;;;;;14.70;12.57;;;;;;;;;;4990998;28;20846;-55
2022/05/04 09:01:54;;;;;;;19.33;12.53;;;;;;;;;;5008365;28;20443;-60
2022/05/04 09:04:20;;;;;;;19.83;12.63;;;;;;;;;;5008031;28;20484;-65
2022/05/04 09:06:47;;;;;;;18.97;12.97;;;;;;;;;;5009397;28;20428;-65
2022/05/04 09:09:13;;;;;;;16.67;12.73;;;;;;;;;;5012008;28;20405;-66
2022/05/04 09:11:42;;;;;;;18.57;12.70;;;;;;;;;;5011779;28;20410;-65
2022/05/04 09:14:09;;;;;;;20.03;13.13;;;;;;;;;;5011662;28;20405;-56
2022/05/04 09:16:35;;;;;;;18.90;13.10;;;;;;;;;;5011451;28;20886;-58
2022/05/04 09:19:02;;;;;;;32.93;14.33;;;;;;;;;;5011407;28;20418;-57
2022/05/04 09:21:28;;;;;;;19.30;12.90;;;;;;;;;;5011281;28;20485;-60
2022/05/04 09:23:54;;;;;;;18.07;14.30;;;;;;;;;;5011539;28;20476;-62
2022/05/04 09:26:21;;;;;;;20.47;13.00;;;;;;;;;;5012185;28;20405;-59
2022/05/04 09:28:51;;;;;;;16.63;12.90;;;;;;;;;;5012274;28;20553;-65
2022/05/04 09:31:18;;;;;;;16.80;12.47;;;;;;;;;;5012428;28;20433;-60
2022/05/04 09:33:52;;;;;;;21.00;12.43;;;;;;;;;;5011960;28;20466;-58
2022/05/04 09:36:29;;;;;;;15.57;11.43;;;;;;;;;;5012122;28;20436;-61
2022/05/04 09:47:19;;;;;;;21.17;12.40;;;;;;;;;;5012162;28;20461;-56
2022/05/04 09:49:46;;;;;;;15.53;12.13;;;;;;;;;;4994117;28;20769;-60
2022/05/04 09:52:14;;;;;;;18.03;13.10;;;;;;;;;;5011817;28;20397;-56
2022/05/04 09:54:40;;;;;;;16.80;12.70;;;;;;;;;;5011806;28;20420;-60
2022/05/04 09:57:07;;;;;;;31.80;13.17;;;;;;;;;;5011511;28;21044;-60
2022/05/04 09:59:34;;;;;;;17.03;12.60;;;;;;;;;;5014926;28;20416;-60
2022/05/04 10:02:02;;;;;;;19.27;12.80;;;;;;;;;;5031234;28;20396;-57
2022/05/04 10:04:28;;;;;;;19.37;13.10;;;;;;;;;;5031151;28;21002;-57
2022/05/04 10:06:54;;;;;;;15.50;12.63;;;;;;;;;;5031196;28;20436;-57
2022/05/04 10:09:21;;;;;;;19.33;12.80;;;;;;;;;;5013179;28;20428;-59
2022/05/04 10:11:53;;;;;;;17.70;11.57;;;;;;;;;;5031371;28;20503;-57
2022/05/04 10:14:22;;;;;;;23.10;13.27;;;;;;;;;;5013576;28;20797;-66
2022/05/04 10:17:06;;;;;;;15.73;12.40;;;;;;;;;;5027285;28;20553;-62
2022/05/04 10:19:53;;;;;;;20.00;12.63;;;;;;;;;;5021160;28;20416;-68
2022/05/04 10:22:22;;;;;;;19.90;11.70;;;;;;;;;;5013982;28;20448;-67
2022/05/04 10:24:48;;;;;;;15.53;12.33;;;;;;;;;;5013344;28;20574;-59
2022/05/04 10:27:54;;;;;;;16.00;12.40;;;;;;;;;;5024907;28;20500;-61
2022/05/04 10:30:36;;;;;;;14.60;12.37;;;;;;;;;;5010452;28;20405;-66
2022/05/04 10:33:12;;;;;;;12.90;11.13;;;;;;;;;;4998020;28;20425;-64
2022/05/04 10:35:42;;;;;;;11.60;10.37;;;;;;;;;;5003583;28;20931;-58
2022/05/04 10:38:13;;;;;;;14.90;10.60;;;;;;;;;;4995414;28;20946;-60
2022/05/04 10:40:46;;;;;;;17.70;11.97;;;;;;;;;;5027640;28;20904;-58
2022/05/04 10:43:18;;;;;;;13.37;10.87;;;;;;;;;;5030636;28;20456;-57
2022/05/04 10:45:45;;;;;;;17.20;10.70;;;;;;;;;;5030686;28;20419;-54
2022/05/04 10:48:16;;;;;;;16.50;11.57;;;;;;;;;;5030591;28;20397;-59
2022/05/04 10:51:00;;;;;;;13.30;10.93;;;;;;;;;;5026049;28;20414;-61
2022/05/04 10:53:27;;;;;;;13.50;10.33;;;;;;;;;;4993140;28;21171;-61
2022/05/04 10:55:55;;;;;;;13.10;10.70;;;;;;;;;;5011804;28;20422;-58
2022/05/04 10:58:42;;;;;;;13.03;9.60;;;;;;;;;;5030407;28;20897;-61
2022/05/04 11:01:20;;;;;;;12.30;9.90;;;;;;;;;;5012569;28;20828;-62
2022/05/04 11:04:03;;;;;;;15.40;9.20;;;;;;;;;;5012151;28;20505;-56
2022/05/04 11:06:32;;;;;;;12.97;9.30;;;;;;;;;;5010710;28;20405;-61
2022/05/04 11:09:17;;;;;;;10.93;8.50;;;;;;;;;;5010607;28;20528;-57
2022/05/04 11:11:45;;;;;;;13.27;9.27;;;;;;;;;;5026330;28;20428;-57
2022/05/04 11:14:12;;;;;;;10.90;9.30;;;;;;;;;;5030164;28;20449;-60
2022/05/04 11:16:41;;;;;;;9.17;8.10;;;;;;;;;;5030087;28;20449;-55
2022/05/04 11:19:08;;;;;;;12.30;8.80;;;;;;;;;;5029896;28;20447;-57
2022/05/04 11:21:38;;;;;;;14.37;8.73;;;;;;;;;;5029829;28;20444;-56
2022/05/04 11:24:05;;;;;;;10.70;8.87;;;;;;;;;;5029721;28;20551;-59
2022/05/04 11:26:35;;;;;;;11.20;8.80;;;;;;;;;;5011651;28;20490;-58
2022/05/04 11:29:01;;;;;;;9.33;8.33;;;;;;;;;;5009812;28;20441;-63
2022/05/04 11:31:27;;;;;;;8.30;7.37;;;;;;;;;;5009915;28;20953;-67
2022/05/04 11:33:53;;;;;;;10.50;7.00;;;;;;;;;;5010036;28;20435;-64
2022/05/04 11:36:20;;;;;;;8.20;7.37;;;;;;;;;;5010214;28;20793;-68
2022/05/04 11:38:47;;;;;;;10.30;7.13;;;;;;;;;;5009884;28;20425;-64
2022/05/04 11:41:13;;;;;;;7.10;6.40;;;;;;;;;;5009992;28;20415;-68
2022/05/04 11:43:40;;;;;;;7.63;6.93;;;;;;;;;;5009723;28;20469;-65
2022/05/04 11:46:07;;;;;;;7.57;6.80;;;;;;;;;;5010013;28;21026;-58
2022/05/04 11:48:35;;;;;;;8.07;7.27;;;;;;;;;;5010008;28;20518;-57
2022/05/04 11:51:01;;;;;;;11.37;6.57;;;;;;;;;;5009925;28;20913;-58
2022/05/04 11:53:27;;;;;;;6.83;6.13;;;;;;;;;;5009494;28;20413;-64
2022/05/04 11:55:53;;;;;;;8.80;6.40;;;;;;;;;;5010021;28;20420;-57
2022/05/04 11:58:19;;;;;;;6.20;5.60;;;;;;;;;;5010057;28;20406;-60
2022/05/04 12:00:45;;;;;;;8.80;6.20;;;;;;;;;;5010007;28;20447;-61
2022/05/04 12:03:11;;;;;;;5.90;5.37;;;;;;;;;;5009782;28;20936;-62
2022/05/04 12:05:39;;;;;;;12.63;5.20;;;;;;;;;;5009639;28;20433;-57
2022/05/04 12:08:06;;;;;;;5.50;5.10;;;;;;;;;;5010034;28;20877;-64
2022/05/04 12:10:32;;;;;;;6.23;5.73;;;;;;;;;;4992263;28;20451;-56
2022/05/04 12:12:58;;;;;;;5.67;5.27;;;;;;;;;;5009596;28;20913;-64
2022/05/04 12:15:27;;;;;;;8.57;5.33;;;;;;;;;;5009486;28;20432;-58
2022/05/04 12:17:58;;;;;;;8.27;5.70;;;;;;;;;;5009582;28;20409;-56
2022/05/04 12:20:24;;;;;;;6.00;5.50;;;;;;;;;;5009358;28;20468;-67
2022/05/04 12:22:50;;;;;;;5.57;5.10;;;;;;;;;;5009492;28;20909;-56
2022/05/04 12:25:19;;;;;;;5.30;4.80;;;;;;;;;;5017489;28;20424;-56
2022/05/04 12:27:45;;;;;;;6.47;6.00;;;;;;;;;;5029378;28;20949;-56
2022/05/04 12:33:09;;;;;;;6.40;5.80;;;;;;;;;;5028914;28;20420;-56
2022/05/04 12:35:38;;;;;;;10.57;5.93;;;;;;;;;;5028573;28;20775;-57
2022/05/04 12:38:04;;;;;;;6.43;5.77;;;;;;;;;;5028858;28;20413;-56
2022/05/04 12:40:31;;;;;;;6.63;6.13;;;;;;;;;;5011530;28;20417;-58
2022/05/04 12:43:01;;;;;;;6.10;5.53;;;;;;;;;;5008101;28;20880;-56
2022/05/04 12:45:28;;;;;;;10.03;6.47;;;;;;;;;;5008909;28;20425;-55
2022/05/04 12:47:57;;;;;;;9.10;5.80;;;;;;;;;;5009046;28;20497;-56
2022/05/04 12:50:24;;;;;;;8.80;6.40;;;;;;;;;;5009002;28;20905;-58
2022/05/04 12:52:51;;;;;;;6.20;5.60;;;;;;;;;;5009021;28;20436;-61
2022/05/04 12:55:17;;;;;;;7.03;6.33;;;;;;;;;;5009163;28;20511;-61
2022/05/04 12:57:46;;;;;;;6.10;5.53;;;;;;;;;;5009078;28;20832;-56
2022/05/04 13:00:13;;;;;;;9.07;6.17;;;;;;;;;;5020626;28;20421;-58
2022/05/04 13:02:42;;;;;;;7.23;6.23;;;;;;;;;;5010935;28;20993;-61
2022/05/04 13:05:11;;;;;;;8.07;6.70;;;;;;;;;;5028452;28;20535;-60
2022/05/04 13:07:38;;;;;;;6.63;6.00;;;;;;;;;;5028425;28;20497;-63
2022/05/04 13:10:05;;;;;;;7.27;6.67;;;;;;;;;;5010809;28;20413;-57
2022/05/04 13:12:31;;;;;;;7.20;6.60;;;;;;;;;;5028344;28;20408;-66
2022/05/04 13:14:57;;;;;;;7.47;6.70;;;;;;;;;;5028403;28;20777;-65
2022/05/04 13:17:23;;;;;;;6.97;6.27;;;;;;;;;;5010421;28;20420;-57
2022/05/04 13:19:49;;;;;;;9.93;6.50;;;;;;;;;;5028072;28;20862;-61
2022/05/04 13:22:15;;;;;;;10.93;7.27;;;;;;;;;;5028241;28;20421;-62
2022/05/04 13:24:44;;;;;;;10.10;7.13;;;;;;;;;;5007139;28;20421;-60
2022/05/04 13:27:10;;;;;;;7.40;6.80;;;;;;;;;;4991243;28;20512;-68
2022/05/04 13:29:37;;;;;;;8.23;6.80;;;;;;;;;;5008180;28;20421;-65
2022/05/04 13:32:05;;;;;;;8.13;7.43;;;;;;;;;;5008584;28;20429;-62
2022/05/04 13:34:37;;;;;;;7.67;6.90;;;;;;;;;;5008622;28;20401;-60
2022/05/04 13:37:03;;;;;;;8.03;7.23;;;;;;;;;;5008538;28;20409;-58
2022/05/04 13:39:29;;;;;;;10.40;7.30;;;;;;;;;;5008290;28;20979;-64
2022/05/04 13:41:55;;;;;;;9.03;7.07;;;;;;;;;;4990818;28;20448;-63
2022/05/04 13:44:21;;;;;;;6.93;6.43;;;;;;;;;;5008327;28;20460;-63
2022/05/04 13:46:47;;;;;;;8.23;7.30;;;;;;;;;;5008596;28;20465;-62
2022/05/04 13:49:16;;;;;;;7.97;7.00;;;;;;;;;;5008404;28;20909;-65
2022/05/04 13:54:27;;;;;;;7.10;6.57;;;;;;;;;;5011507;28;20419;-66
2022/05/04 13:56:53;;;;;;;7.93;6.83;;;;;;;;;;5011645;28;20401;-65
2022/05/04 13:59:19;;;;;;;8.80;7.70;;;;;;;;;;4994045;28;20421;-65
2022/05/04 14:01:46;;;;;;;9.27;7.10;;;;;;;;;;5011730;28;20412;-64
2022/05/04 14:04:12;;;;;;;7.43;6.30;;;;;;;;;;5011330;28;20588;-62
2022/05/04 14:06:38;;;;;;;6.90;6.40;;;;;;;;;;4993954;28;20409;-63
2022/05/04 14:09:05;;;;;;;7.30;6.60;;;;;;;;;;5011644;28;20468;-62
2022/05/04 14:11:34;;;;;;;9.80;6.77;;;;;;;;;;5011450;28;20500;-63
2022/05/04 14:16:45;;;;;;;7.30;6.53;;;;;;;;;;5011943;28;20407;-60
2022/05/04 14:19:11;;;;;;;7.27;6.07;;;;;;;;;;4993796;28;20413;-65
2022/05/04 14:21:37;;;;;;;7.63;6.13;;;;;;;;;;5011149;28;20225;-61
2022/05/04 14:24:04;;;;;;;9.67;6.70;;;;;;;;;;5011315;28;20476;-60
2022/05/04 14:26:32;;;;;;;9.20;7.23;;;;;;;;;;5011026;28;20417;-60
2022/05/04 14:28:58;;;;;;;7.57;6.70;;;;;;;;;;5011181;28;20466;-61
2022/05/04 14:31:24;;;;;;;8.00;7.30;;;;;;;;;;5010838;28;20808;-64
2022/05/04 14:33:50;;;;;;;7.30;6.53;;;;;;;;;;5011254;28;20534;-64
2022/05/04 14:36:16;;;;;;;7.70;7.10;;;;;;;;;;4993659;28;20409;-60
2022/05/04 14:38:42;;;;;;;8.10;7.40;;;;;;;;;;4995984;28;20212;-60
2022/05/04 14:41:08;;;;;;;8.00;7.20;;;;;;;;;;5030877;28;20412;-60
2022/05/04 14:43:34;;;;;;;8.70;6.80;;;;;;;;;;5012905;28;20475;-68
2022/05/04 14:46:00;;;;;;;10.43;7.00;;;;;;;;;;5030813;28;20169;-65
2022/05/04 14:48:26;;;;;;;11.07;6.90;;;;;;;;;;5030755;28;20443;-63
2022/05/04 14:50:52;;;;;;;8.90;7.63;;;;;;;;;;5013204;28;20478;-70
2022/05/04 14:53:18;;;;;;;7.97;7.00;;;;;;;;;;5013220;28;20169;-67
2022/05/04 14:55:44;;;;;;;6.73;6.17;;;;;;;;;;5030638;28;20440;-69
2022/05/04 14:58:10;;;;;;;9.20;6.77;;;;;;;;;;5013109;28;20629;-70
2022/05/04 15:00:37;;;;;;;10.10;7.47;;;;;;;;;;5030491;28;20182;-61
2022/05/04 15:05:48;;;;;;;7.20;6.60;;;;;;;;;;5029859;28;20184;-62
2022/05/04 15:08:14;;;;;;;10.13;7.22;;;;;;;;;;5030608;28;20544;-64
2022/05/04 15:10:40;;;;;;;9.13;7.15;;;;;;;;;;5030475;28;20173;-64